sensor_id;sensor_type;location;lat;lon;timestamp;temperature;humidity
4651;DHT22;2338;49.602;8.722;2023-08-12T00:01:38;18.90;99.90
4651;DHT22;2338;49.602;8.722;2023-08-12T00:04:24;18.90;99.90
4651;DHT22;2338;49.602;8.722;2023-08-12T00:07:09;18.90;99.90
4651;DHT22;2338;49.602;8.722;2023-08-12T00:09:56;19.00;99.90
4651;DHT22;2338;49.602;8.722;2023-08-12T00:12:42;19.00;99.90
4651;DHT22;2338;49.602;8.722;2023-08-12T00:15:28;19.00;99.90
4651;DHT22;2338;49.602;8.722;2023-08-12T00:18:13;19.10;99.90
4651;DHT22;2338;49.602;8.722;2023-08-12T00:20:59;19.10;99.90
4651;DHT22;2338;49.602;8.722;2023-08-12T00:23:45;19.00;99.90
4651;DHT22;2338;49.602;8.722;2023-08-12T00:26:32;19.00;99.90
4651;DHT22;2338;49.602;8.722;2023-08-12T00:29:18;18.90;99.90
4651;DHT22;2338;49.602;8.722;2023-08-12T00:32:04;19.00;99.90
4651;DHT22;2338;49.602;8.722;2023-08-12T00:34:49;19.00;99.90
4651;DHT22;2338;49.602;8.722;2023-08-12T00:37:35;19.10;99.90
4651;DHT22;2338;49.602;8.722;2023-08-12T00:40:20;19.20;99.90
4651;DHT22;2338;49.602;8.722;2023-08-12T00:43:07;19.20;99.90
4651;DHT22;2338;49.602;8.722;2023-08-12T00:45:53;19.20;99.90
4651;DHT22;2338;49.602;8.722;2023-08-12T00:48:39;19.10;99.90
4651;DHT22;2338;49.602;8.722;2023-08-12T00:51:25;19.00;99.90
4651;DHT22;2338;49.602;8.722;2023-08-12T00:54:14;18.90;99.90
4651;DHT22;2338;49.602;8.722;2023-08-12T00:57:00;18.80;99.90
4651;DHT22;2338;49.602;8.722;2023-08-12T00:59:48;18.90;99.90
4651;DHT22;2338;49.602;8.722;2023-08-12T01:02:34;19.00;99.90
4651;DHT22;2338;49.602;8.722;2023-08-12T01:05:20;19.00;99.90
4651;DHT22;2338;49.602;8.722;2023-08-12T01:08:05;19.10;99.90
4651;DHT22;2338;49.602;8.722;2023-08-12T01:10:58;19.20;99.90
4651;DHT22;2338;49.602;8.722;2023-08-12T01:13:52;19.20;99.90
4651;DHT22;2338;49.602;8.722;2023-08-12T01:16:47;19.20;99.90
4651;DHT22;2338;49.602;8.722;2023-08-12T01:19:35;19.10;99.90
4651;DHT22;2338;49.602;8.722;2023-08-12T01:22:23;19.10;99.90
4651;DHT22;2338;49.602;8.722;2023-08-12T01:25:12;19.00;99.90
4651;DHT22;2338;49.602;8.722;2023-08-12T01:27:57;19.10;99.90
4651;DHT22;2338;49.602;8.722;2023-08-12T01:30:47;19.20;99.90
4651;DHT22;2338;49.602;8.722;2023-08-12T01:33:38;19.20;99.90
4651;DHT22;2338;49.602;8.722;2023-08-12T01:36:25;19.20;99.90
4651;DHT22;2338;49.602;8.722;2023-08-12T01:39:13;19.20;99.90
4651;DHT22;2338;49.602;8.722;2023-08-12T01:42:01;19.30;99.90
4651;DHT22;2338;49.602;8.722;2023-08-12T01:44:48;19.30;99.90
4651;DHT22;2338;49.602;8.722;2023-08-12T01:47:34;19.30;99.90
4651;DHT22;2338;49.602;8.722;2023-08-12T01:50:20;19.30;99.90
4651;DHT22;2338;49.602;8.722;2023-08-12T01:53:05;19.30;99.90
4651;DHT22;2338;49.602;8.722;2023-08-12T01:55:52;19.40;99.90
4651;DHT22;2338;49.602;8.722;2023-08-12T01:58:39;19.30;99.90
4651;DHT22;2338;49.602;8.722;2023-08-12T02:01:24;19.20;99.90
4651;DHT22;2338;49.602;8.722;2023-08-12T02:04:10;19.20;99.90
4651;DHT22;2338;49.602;8.722;2023-08-12T02:06:56;19.20;99.90
4651;DHT22;2338;49.602;8.722;2023-08-12T02:09:41;19.20;99.90
4651;DHT22;2338;49.602;8.722;2023-08-12T02:12:26;19.00;99.90
4651;DHT22;2338;49.602;8.722;2023-08-12T02:15:13;19.00;99.90
4651;DHT22;2338;49.602;8.722;2023-08-12T02:17:59;19.10;99.90
4651;DHT22;2338;49.602;8.722;2023-08-12T02:20:46;19.20;99.90
4651;DHT22;2338;49.602;8.722;2023-08-12T02:23:32;19.20;99.90
4651;DHT22;2338;49.602;8.722;2023-08-12T02:26:18;19.20;99.90
4651;DHT22;2338;49.602;8.722;2023-08-12T02:29:03;19.30;99.90
4651;DHT22;2338;49.602;8.722;2023-08-12T02:31:50;19.40;99.90
4651;DHT22;2338;49.602;8.722;2023-08-12T02:34:36;19.30;99.90
4651;DHT22;2338;49.602;8.722;2023-08-12T02:37:21;19.30;99.90
4651;DHT22;2338;49.602;8.722;2023-08-12T02:40:08;19.20;99.90
4651;DHT22;2338;49.602;8.722;2023-08-12T02:42:54;19.20;99.90
4651;DHT22;2338;49.602;8.722;2023-08-12T02:45:40;19.30;99.90
4651;DHT22;2338;49.602;8.722;2023-08-12T02:48:27;19.30;99.90
4651;DHT22;2338;49.602;8.722;2023-08-12T02:51:12;19.30;99.90
4651;DHT22;2338;49.602;8.722;2023-08-12T02:53:58;19.40;99.90
4651;DHT22;2338;49.602;8.722;2023-08-12T02:56:43;19.40;99.90
4651;DHT22;2338;49.602;8.722;2023-08-12T02:59:29;19.30;99.90
4651;DHT22;2338;49.602;8.722;2023-08-12T03:02:14;19.20;99.90
4651;DHT22;2338;49.602;8.722;2023-08-12T03:05:01;19.20;99.90
4651;DHT22;2338;49.602;8.722;2023-08-12T03:07:47;19.20;99.90
4651;DHT22;2338;49.602;8.722;2023-08-12T03:10:33;19.20;99.90
4651;DHT22;2338;49.602;8.722;2023-08-12T03:13:18;19.20;99.90
4651;DHT22;2338;49.602;8.722;2023-08-12T03:16:04;19.20;99.90
4651;DHT22;2338;49.602;8.722;2023-08-12T03:18:49;19.30;99.90
4651;DHT22;2338;49.602;8.722;2023-08-12T03:21:36;19.20;99.90
4651;DHT22;2338;49.602;8.722;2023-08-12T03:24:22;19.20;99.90
4651;DHT22;2338;49.602;8.722;2023-08-12T03:27:07;19.30;99.90
4651;DHT22;2338;49.602;8.722;2023-08-12T03:29:53;19.30;99.90
4651;DHT22;2338;49.602;8.722;2023-08-12T03:32:39;19.30;99.90
4651;DHT22;2338;49.602;8.722;2023-08-12T03:35:24;19.30;99.90
4651;DHT22;2338;49.602;8.722;2023-08-12T03:38:11;19.30;99.90
4651;DHT22;2338;49.602;8.722;2023-08-12T03:40:56;19.30;99.90
4651;DHT22;2338;49.602;8.722;2023-08-12T03:43:42;19.20;99.90
4651;DHT22;2338;49.602;8.722;2023-08-12T03:46:27;19.20;99.90
4651;DHT22;2338;49.602;8.722;2023-08-12T03:49:13;19.30;99.90
4651;DHT22;2338;49.602;8.722;2023-08-12T03:51:58;19.30;99.90
4651;DHT22;2338;49.602;8.722;2023-08-12T03:54:45;19.30;99.90
4651;DHT22;2338;49.602;8.722;2023-08-12T03:57:31;19.30;99.90
4651;DHT22;2338;49.602;8.722;2023-08-12T04:00:16;19.30;99.90
4651;DHT22;2338;49.602;8.722;2023-08-12T04:03:03;19.30;99.90
4651;DHT22;2338;49.602;8.722;2023-08-12T04:05:49;19.30;99.90
4651;DHT22;2338;49.602;8.722;2023-08-12T04:08:35;19.30;99.90
4651;DHT22;2338;49.602;8.722;2023-08-12T04:11:22;19.10;99.90
4651;DHT22;2338;49.602;8.722;2023-08-12T04:14:08;19.00;99.90
4651;DHT22;2338;49.602;8.722;2023-08-12T04:16:53;19.00;99.90
4651;DHT22;2338;49.602;8.722;2023-08-12T04:19:39;19.00;99.90
4651;DHT22;2338;49.602;8.722;2023-08-12T04:22:24;19.00;99.90
4651;DHT22;2338;49.602;8.722;2023-08-12T04:25:10;19.00;99.90
4651;DHT22;2338;49.602;8.722;2023-08-12T04:27:57;19.00;99.90
4651;DHT22;2338;49.602;8.722;2023-08-12T04:30:43;19.10;99.90
4651;DHT22;2338;49.602;8.722;2023-08-12T04:33:28;19.10;99.90
4651;DHT22;2338;49.602;8.722;2023-08-12T04:36:14;19.10;99.90
4651;DHT22;2338;49.602;8.722;2023-08-12T04:38:59;19.10;99.90
4651;DHT22;2338;49.602;8.722;2023-08-12T04:41:45;19.20;99.90
4651;DHT22;2338;49.602;8.722;2023-08-12T04:44:32;19.20;99.90
4651;DHT22;2338;49.602;8.722;2023-08-12T04:47:17;19.20;99.90
4651;DHT22;2338;49.602;8.722;2023-08-12T04:50:03;19.30;99.90
4651;DHT22;2338;49.602;8.722;2023-08-12T04:52:49;19.20;99.90
4651;DHT22;2338;49.602;8.722;2023-08-12T04:55:34;19.20;99.90
4651;DHT22;2338;49.602;8.722;2023-08-12T04:58:20;19.20;99.90
4651;DHT22;2338;49.602;8.722;2023-08-12T05:01:07;19.10;99.90
4651;DHT22;2338;49.602;8.722;2023-08-12T05:03:53;19.10;99.90
4651;DHT22;2338;49.602;8.722;2023-08-12T05:06:38;19.20;99.90
4651;DHT22;2338;49.602;8.722;2023-08-12T05:09:24;19.20;99.90
4651;DHT22;2338;49.602;8.722;2023-08-12T05:12:09;19.30;99.90
4651;DHT22;2338;49.602;8.722;2023-08-12T05:14:55;19.40;99.90
4651;DHT22;2338;49.602;8.722;2023-08-12T05:17:42;19.40;99.90
4651;DHT22;2338;49.602;8.722;2023-08-12T05:20:28;19.40;99.90
4651;DHT22;2338;49.602;8.722;2023-08-12T05:23:13;19.40;99.90
4651;DHT22;2338;49.602;8.722;2023-08-12T05:25:59;19.40;99.90
4651;DHT22;2338;49.602;8.722;2023-08-12T05:28:44;19.50;99.90
4651;DHT22;2338;49.602;8.722;2023-08-12T05:31:30;19.50;99.90
4651;DHT22;2338;49.602;8.722;2023-08-12T05:34:17;19.50;99.90
4651;DHT22;2338;49.602;8.722;2023-08-12T05:37:02;19.50;99.90
4651;DHT22;2338;49.602;8.722;2023-08-12T05:39:48;19.60;99.90
4651;DHT22;2338;49.602;8.722;2023-08-12T05:42:34;19.60;99.90
4651;DHT22;2338;49.602;8.722;2023-08-12T05:45:19;19.60;99.90
4651;DHT22;2338;49.602;8.722;2023-08-12T05:48:05;19.60;99.90
4651;DHT22;2338;49.602;8.722;2023-08-12T05:50:52;19.60;99.90
4651;DHT22;2338;49.602;8.722;2023-08-12T05:53:37;19.70;99.90
4651;DHT22;2338;49.602;8.722;2023-08-12T05:56:23;19.80;99.90
4651;DHT22;2338;49.602;8.722;2023-08-12T05:59:08;19.80;99.90
4651;DHT22;2338;49.602;8.722;2023-08-12T06:01:54;19.80;99.90
4651;DHT22;2338;49.602;8.722;2023-08-12T06:04:40;19.70;99.90
4651;DHT22;2338;49.602;8.722;2023-08-12T06:07:26;19.80;99.90
4651;DHT22;2338;49.602;8.722;2023-08-12T06:10:12;19.80;99.90
4651;DHT22;2338;49.602;8.722;2023-08-12T06:12:57;19.90;99.90
4651;DHT22;2338;49.602;8.722;2023-08-12T06:15:43;19.90;99.90
4651;DHT22;2338;49.602;8.722;2023-08-12T06:18:28;19.90;99.90
4651;DHT22;2338;49.602;8.722;2023-08-12T06:21:14;19.90;99.90
4651;DHT22;2338;49.602;8.722;2023-08-12T06:24:01;19.90;99.90
4651;DHT22;2338;49.602;8.722;2023-08-12T06:26:46;19.90;99.90
4651;DHT22;2338;49.602;8.722;2023-08-12T06:29:32;20.10;99.90
4651;DHT22;2338;49.602;8.722;2023-08-12T06:32:17;20.30;99.90
4651;DHT22;2338;49.602;8.722;2023-08-12T06:35:03;20.50;99.90
4651;DHT22;2338;49.602;8.722;2023-08-12T06:37:48;20.80;99.90
4651;DHT22;2338;49.602;8.722;2023-08-12T06:40:37;20.90;99.90
4651;DHT22;2338;49.602;8.722;2023-08-12T06:43:22;21.00;99.90
4651;DHT22;2338;49.602;8.722;2023-08-12T06:46:08;21.00;99.90
4651;DHT22;2338;49.602;8.722;2023-08-12T06:48:53;21.10;99.90
4651;DHT22;2338;49.602;8.722;2023-08-12T06:51:39;21.20;99.90
4651;DHT22;2338;49.602;8.722;2023-08-12T06:54:24;21.30;99.90
4651;DHT22;2338;49.602;8.722;2023-08-12T06:57:11;21.30;99.90
4651;DHT22;2338;49.602;8.722;2023-08-12T06:59:57;21.40;99.90
4651;DHT22;2338;49.602;8.722;2023-08-12T07:02:42;21.40;99.90
4651;DHT22;2338;49.602;8.722;2023-08-12T07:05:28;21.40;99.90
4651;DHT22;2338;49.602;8.722;2023-08-12T07:08:13;21.40;99.90
4651;DHT22;2338;49.602;8.722;2023-08-12T07:10:59;21.30;99.90
4651;DHT22;2338;49.602;8.722;2023-08-12T07:13:46;21.40;99.90
4651;DHT22;2338;49.602;8.722;2023-08-12T07:16:31;21.40;99.90
4651;DHT22;2338;49.602;8.722;2023-08-12T07:19:17;21.50;99.90
4651;DHT22;2338;49.602;8.722;2023-08-12T07:22:02;21.60;99.90
4651;DHT22;2338;49.602;8.722;2023-08-12T07:24:48;21.60;99.90
4651;DHT22;2338;49.602;8.722;2023-08-12T07:27:36;21.70;99.90
4651;DHT22;2338;49.602;8.722;2023-08-12T07:30:23;21.80;99.90
4651;DHT22;2338;49.602;8.722;2023-08-12T07:33:08;21.90;99.90
4651;DHT22;2338;49.602;8.722;2023-08-12T07:35:53;21.90;99.90
4651;DHT22;2338;49.602;8.722;2023-08-12T07:38:39;22.00;99.90
4651;DHT22;2338;49.602;8.722;2023-08-12T07:41:25;22.00;99.90
4651;DHT22;2338;49.602;8.722;2023-08-12T07:44:11;22.00;99.90
4651;DHT22;2338;49.602;8.722;2023-08-12T07:46:58;22.10;99.90
4651;DHT22;2338;49.602;8.722;2023-08-12T07:49:44;22.10;99.90
4651;DHT22;2338;49.602;8.722;2023-08-12T07:52:29;22.10;99.90
4651;DHT22;2338;49.602;8.722;2023-08-12T07:55:16;22.20;99.90
4651;DHT22;2338;49.602;8.722;2023-08-12T07:58:01;22.20;99.90
4651;DHT22;2338;49.602;8.722;2023-08-12T08:00:48;22.30;99.90
4651;DHT22;2338;49.602;8.722;2023-08-12T08:03:39;22.30;99.90
4651;DHT22;2338;49.602;8.722;2023-08-12T08:06:25;22.40;99.90
4651;DHT22;2338;49.602;8.722;2023-08-12T08:09:10;22.40;99.90
4651;DHT22;2338;49.602;8.722;2023-08-12T08:11:56;22.50;99.90
4651;DHT22;2338;49.602;8.722;2023-08-12T08:14:44;22.60;99.90
4651;DHT22;2338;49.602;8.722;2023-08-12T08:17:29;22.80;99.90
4651;DHT22;2338;49.602;8.722;2023-08-12T08:20:16;22.90;99.90
4651;DHT22;2338;49.602;8.722;2023-08-12T08:23:02;23.00;99.90
4651;DHT22;2338;49.602;8.722;2023-08-12T08:25:48;23.20;99.90
4651;DHT22;2338;49.602;8.722;2023-08-12T08:28:33;23.30;99.90
4651;DHT22;2338;49.602;8.722;2023-08-12T08:31:18;23.40;99.90
4651;DHT22;2338;49.602;8.722;2023-08-12T08:34:04;23.50;99.90
4651;DHT22;2338;49.602;8.722;2023-08-12T08:36:51;23.50;99.90
4651;DHT22;2338;49.602;8.722;2023-08-12T08:39:40;23.60;99.90
4651;DHT22;2338;49.602;8.722;2023-08-12T08:42:25;23.70;99.90
4651;DHT22;2338;49.602;8.722;2023-08-12T08:45:12;23.90;99.90
4651;DHT22;2338;49.602;8.722;2023-08-12T08:47:59;23.90;99.90
4651;DHT22;2338;49.602;8.722;2023-08-12T08:50:45;24.00;99.90
4651;DHT22;2338;49.602;8.722;2023-08-12T08:53:35;24.10;99.90
4651;DHT22;2338;49.602;8.722;2023-08-12T08:56:22;24.30;99.90
4651;DHT22;2338;49.602;8.722;2023-08-12T08:59:09;24.40;99.90
4651;DHT22;2338;49.602;8.722;2023-08-12T09:01:55;24.50;99.90
4651;DHT22;2338;49.602;8.722;2023-08-12T09:04:41;24.60;99.90
4651;DHT22;2338;49.602;8.722;2023-08-12T09:07:27;24.70;99.90
4651;DHT22;2338;49.602;8.722;2023-08-12T09:10:14;24.80;99.90
4651;DHT22;2338;49.602;8.722;2023-08-12T09:13:00;24.80;99.90
4651;DHT22;2338;49.602;8.722;2023-08-12T09:15:46;24.90;99.90
4651;DHT22;2338;49.602;8.722;2023-08-12T09:18:32;24.90;99.90
4651;DHT22;2338;49.602;8.722;2023-08-12T09:21:17;25.00;99.90
4651;DHT22;2338;49.602;8.722;2023-08-12T09:24:04;25.10;99.90
4651;DHT22;2338;49.602;8.722;2023-08-12T09:26:52;25.20;99.90
4651;DHT22;2338;49.602;8.722;2023-08-12T09:29:38;25.30;99.90
4651;DHT22;2338;49.602;8.722;2023-08-12T09:32:24;25.40;99.90
4651;DHT22;2338;49.602;8.722;2023-08-12T09:35:15;25.50;99.90
4651;DHT22;2338;49.602;8.722;2023-08-12T09:38:03;25.60;99.90
4651;DHT22;2338;49.602;8.722;2023-08-12T09:40:48;25.50;99.90
4651;DHT22;2338;49.602;8.722;2023-08-12T09:43:41;25.40;99.90
4651;DHT22;2338;49.602;8.722;2023-08-12T09:46:28;25.40;99.90
4651;DHT22;2338;49.602;8.722;2023-08-12T09:49:13;25.40;99.90
4651;DHT22;2338;49.602;8.722;2023-08-12T09:51:59;25.40;99.90
4651;DHT22;2338;49.602;8.722;2023-08-12T09:54:44;25.60;99.90
4651;DHT22;2338;49.602;8.722;2023-08-12T09:57:33;25.70;99.90
4651;DHT22;2338;49.602;8.722;2023-08-12T10:00:23;25.90;99.90
4651;DHT22;2338;49.602;8.722;2023-08-12T10:03:10;25.90;99.90
4651;DHT22;2338;49.602;8.722;2023-08-12T10:05:56;26.10;99.90
4651;DHT22;2338;49.602;8.722;2023-08-12T10:08:43;26.20;99.90
4651;DHT22;2338;49.602;8.722;2023-08-12T10:11:28;26.20;99.90
4651;DHT22;2338;49.602;8.722;2023-08-12T10:14:14;26.30;99.90
4651;DHT22;2338;49.602;8.722;2023-08-12T10:17:02;26.40;99.90
4651;DHT22;2338;49.602;8.722;2023-08-12T10:19:48;26.40;99.90
4651;DHT22;2338;49.602;8.722;2023-08-12T10:22:40;26.30;99.90
4651;DHT22;2338;49.602;8.722;2023-08-12T10:25:31;26.20;99.90
4651;DHT22;2338;49.602;8.722;2023-08-12T10:28:19;26.10;99.90
4651;DHT22;2338;49.602;8.722;2023-08-12T10:31:05;26.00;99.90
4651;DHT22;2338;49.602;8.722;2023-08-12T10:33:52;25.90;99.90
4651;DHT22;2338;49.602;8.722;2023-08-12T10:36:41;25.80;99.90
4651;DHT22;2338;49.602;8.722;2023-08-12T10:39:27;25.70;99.90
4651;DHT22;2338;49.602;8.722;2023-08-12T10:42:12;25.70;99.90
4651;DHT22;2338;49.602;8.722;2023-08-12T10:44:58;25.70;99.90
4651;DHT22;2338;49.602;8.722;2023-08-12T10:47:48;25.50;99.90
4651;DHT22;2338;49.602;8.722;2023-08-12T10:50:35;25.40;99.90
4651;DHT22;2338;49.602;8.722;2023-08-12T10:53:23;25.30;99.90
4651;DHT22;2338;49.602;8.722;2023-08-12T10:56:11;25.20;99.90
4651;DHT22;2338;49.602;8.722;2023-08-12T10:58:56;25.10;99.90
4651;DHT22;2338;49.602;8.722;2023-08-12T11:01:42;25.10;99.90
4651;DHT22;2338;49.602;8.722;2023-08-12T11:04:28;25.00;99.90
4651;DHT22;2338;49.602;8.722;2023-08-12T11:07:34;25.00;99.90
4651;DHT22;2338;49.602;8.722;2023-08-12T11:10:22;24.80;99.90
4651;DHT22;2338;49.602;8.722;2023-08-12T11:13:09;24.80;99.90
4651;DHT22;2338;49.602;8.722;2023-08-12T11:16:06;24.80;99.90
4651;DHT22;2338;49.602;8.722;2023-08-12T11:18:51;24.60;99.90
4651;DHT22;2338;49.602;8.722;2023-08-12T11:21:37;24.50;99.90
4651;DHT22;2338;49.602;8.722;2023-08-12T11:24:25;24.50;99.90
4651;DHT22;2338;49.602;8.722;2023-08-12T11:27:11;24.40;99.90
4651;DHT22;2338;49.602;8.722;2023-08-12T11:29:56;24.40;99.90
4651;DHT22;2338;49.602;8.722;2023-08-12T11:32:43;24.40;99.90
4651;DHT22;2338;49.602;8.722;2023-08-12T11:35:29;24.40;99.90
4651;DHT22;2338;49.602;8.722;2023-08-12T11:38:15;24.10;99.90
4651;DHT22;2338;49.602;8.722;2023-08-12T11:41:02;23.70;99.90
4651;DHT22;2338;49.602;8.722;2023-08-12T11:43:47;23.60;99.90
4651;DHT22;2338;49.602;8.722;2023-08-12T11:46:33;22.90;99.90
4651;DHT22;2338;49.602;8.722;2023-08-12T11:49:19;22.30;99.90
4651;DHT22;2338;49.602;8.722;2023-08-12T11:52:04;22.20;99.90
4651;DHT22;2338;49.602;8.722;2023-08-12T11:54:50;22.10;99.90
4651;DHT22;2338;49.602;8.722;2023-08-12T11:57:39;22.10;99.90
4651;DHT22;2338;49.602;8.722;2023-08-12T12:00:25;21.90;99.90
4651;DHT22;2338;49.602;8.722;2023-08-12T12:03:11;21.90;99.90
4651;DHT22;2338;49.602;8.722;2023-08-12T12:05:56;21.70;99.90
4651;DHT22;2338;49.602;8.722;2023-08-12T12:08:44;21.60;99.90
4651;DHT22;2338;49.602;8.722;2023-08-12T12:11:29;21.50;99.90
4651;DHT22;2338;49.602;8.722;2023-08-12T12:14:16;21.50;99.90
4651;DHT22;2338;49.602;8.722;2023-08-12T12:17:07;21.50;99.90
4651;DHT22;2338;49.602;8.722;2023-08-12T12:19:55;21.50;99.90
4651;DHT22;2338;49.602;8.722;2023-08-12T12:22:42;21.40;99.90
4651;DHT22;2338;49.602;8.722;2023-08-12T12:25:28;21.20;99.90
4651;DHT22;2338;49.602;8.722;2023-08-12T12:28:13;21.20;99.90
4651;DHT22;2338;49.602;8.722;2023-08-12T12:31:00;21.20;99.90
4651;DHT22;2338;49.602;8.722;2023-08-12T12:33:46;21.30;99.90
4651;DHT22;2338;49.602;8.722;2023-08-12T12:36:31;21.40;99.90
4651;DHT22;2338;49.602;8.722;2023-08-12T12:39:17;21.50;99.90
4651;DHT22;2338;49.602;8.722;2023-08-12T12:42:03;21.60;99.90
4651;DHT22;2338;49.602;8.722;2023-08-12T12:44:48;21.70;99.90
4651;DHT22;2338;49.602;8.722;2023-08-12T12:47:36;21.90;99.90
4651;DHT22;2338;49.602;8.722;2023-08-12T12:50:21;22.30;99.90
4651;DHT22;2338;49.602;8.722;2023-08-12T12:53:07;22.70;99.90
4651;DHT22;2338;49.602;8.722;2023-08-12T12:55:52;22.90;99.90
4651;DHT22;2338;49.602;8.722;2023-08-12T12:58:38;23.00;99.90
4651;DHT22;2338;49.602;8.722;2023-08-12T13:01:23;22.80;99.90
4651;DHT22;2338;49.602;8.722;2023-08-12T13:04:11;22.80;99.90
4651;DHT22;2338;49.602;8.722;2023-08-12T13:06:56;22.80;99.90
4651;DHT22;2338;49.602;8.722;2023-08-12T13:09:41;22.80;99.90
4651;DHT22;2338;49.602;8.722;2023-08-12T13:12:29;22.70;99.90
4651;DHT22;2338;49.602;8.722;2023-08-12T13:15:15;22.60;99.90
4651;DHT22;2338;49.602;8.722;2023-08-12T13:18:01;22.60;99.90
4651;DHT22;2338;49.602;8.722;2023-08-12T13:20:48;22.60;99.90
4651;DHT22;2338;49.602;8.722;2023-08-12T13:23:33;22.40;99.90
4651;DHT22;2338;49.602;8.722;2023-08-12T13:26:20;22.30;99.90
4651;DHT22;2338;49.602;8.722;2023-08-12T13:29:05;22.30;99.90
4651;DHT22;2338;49.602;8.722;2023-08-12T13:31:51;22.20;99.90
4651;DHT22;2338;49.602;8.722;2023-08-12T13:34:36;22.30;99.90
4651;DHT22;2338;49.602;8.722;2023-08-12T13:37:23;22.40;99.90
4651;DHT22;2338;49.602;8.722;2023-08-12T13:40:09;22.40;99.90
4651;DHT22;2338;49.602;8.722;2023-08-12T13:42:55;22.50;99.90
4651;DHT22;2338;49.602;8.722;2023-08-12T13:45:41;22.50;99.90
4651;DHT22;2338;49.602;8.722;2023-08-12T13:48:26;22.60;99.90
4651;DHT22;2338;49.602;8.722;2023-08-12T13:51:12;22.60;99.90
4651;DHT22;2338;49.602;8.722;2023-08-12T13:53:59;22.60;99.90
4651;DHT22;2338;49.602;8.722;2023-08-12T13:56:44;22.70;99.90
4651;DHT22;2338;49.602;8.722;2023-08-12T13:59:30;22.80;99.90
4651;DHT22;2338;49.602;8.722;2023-08-12T14:02:15;22.80;99.90
4651;DHT22;2338;49.602;8.722;2023-08-12T14:05:01;22.80;99.90
4651;DHT22;2338;49.602;8.722;2023-08-12T14:07:46;22.80;99.90
4651;DHT22;2338;49.602;8.722;2023-08-12T14:10:33;22.80;99.90
4651;DHT22;2338;49.602;8.722;2023-08-12T14:13:19;22.80;99.90
4651;DHT22;2338;49.602;8.722;2023-08-12T14:16:04;22.90;99.90
4651;DHT22;2338;49.602;8.722;2023-08-12T14:18:50;22.90;99.90
4651;DHT22;2338;49.602;8.722;2023-08-12T14:21:35;23.00;99.90
4651;DHT22;2338;49.602;8.722;2023-08-12T14:24:21;23.10;99.90
4651;DHT22;2338;49.602;8.722;2023-08-12T14:27:08;23.20;99.90
4651;DHT22;2338;49.602;8.722;2023-08-12T14:29:53;23.30;99.90
4651;DHT22;2338;49.602;8.722;2023-08-12T14:32:39;23.30;99.90
4651;DHT22;2338;49.602;8.722;2023-08-12T14:35:25;23.30;99.90
4651;DHT22;2338;49.602;8.722;2023-08-12T14:38:10;23.30;99.90
4651;DHT22;2338;49.602;8.722;2023-08-12T14:40:57;23.30;99.90
4651;DHT22;2338;49.602;8.722;2023-08-12T14:43:44;23.30;99.90
4651;DHT22;2338;49.602;8.722;2023-08-12T14:46:29;23.40;99.90
4651;DHT22;2338;49.602;8.722;2023-08-12T14:49:14;23.40;99.90
4651;DHT22;2338;49.602;8.722;2023-08-12T14:52:00;23.50;99.90
4651;DHT22;2338;49.602;8.722;2023-08-12T14:54:45;23.60;99.90
4651;DHT22;2338;49.602;8.722;2023-08-12T14:57:31;23.60;99.90
4651;DHT22;2338;49.602;8.722;2023-08-12T15:00:18;23.60;99.90
4651;DHT22;2338;49.602;8.722;2023-08-12T15:03:04;23.60;99.90
4651;DHT22;2338;49.602;8.722;2023-08-12T15:05:58;23.70;99.90
4651;DHT22;2338;49.602;8.722;2023-08-12T15:08:43;23.70;99.90
4651;DHT22;2338;49.602;8.722;2023-08-12T15:11:29;23.60;99.90
4651;DHT22;2338;49.602;8.722;2023-08-12T15:14:15;23.60;99.90
4651;DHT22;2338;49.602;8.722;2023-08-12T15:17:02;23.60;99.90
4651;DHT22;2338;49.602;8.722;2023-08-12T15:19:47;23.50;99.90
4651;DHT22;2338;49.602;8.722;2023-08-12T15:22:33;23.50;99.90
4651;DHT22;2338;49.602;8.722;2023-08-12T15:25:19;23.50;99.90
4651;DHT22;2338;49.602;8.722;2023-08-12T15:28:05;23.60;99.90
4651;DHT22;2338;49.602;8.722;2023-08-12T15:30:50;23.50;99.90
4651;DHT22;2338;49.602;8.722;2023-08-12T15:33:37;23.50;99.90
4651;DHT22;2338;49.602;8.722;2023-08-12T15:36:23;23.40;99.90
4651;DHT22;2338;49.602;8.722;2023-08-12T15:39:08;23.50;99.90
4651;DHT22;2338;49.602;8.722;2023-08-12T15:41:54;23.50;99.90
4651;DHT22;2338;49.602;8.722;2023-08-12T15:44:39;23.50;99.90
4651;DHT22;2338;49.602;8.722;2023-08-12T15:47:25;23.70;99.90
4651;DHT22;2338;49.602;8.722;2023-08-12T15:50:12;23.80;99.90
4651;DHT22;2338;49.602;8.722;2023-08-12T15:52:57;23.90;99.90
4651;DHT22;2338;49.602;8.722;2023-08-12T15:55:43;23.90;99.90
4651;DHT22;2338;49.602;8.722;2023-08-12T15:58:28;24.00;99.90
4651;DHT22;2338;49.602;8.722;2023-08-12T16:01:14;23.90;99.90
4651;DHT22;2338;49.602;8.722;2023-08-12T16:04:00;23.90;99.90
4651;DHT22;2338;49.602;8.722;2023-08-12T16:06:48;24.00;99.90
4651;DHT22;2338;49.602;8.722;2023-08-12T16:09:34;23.90;99.90
4651;DHT22;2338;49.602;8.722;2023-08-12T16:12:19;23.90;99.90
4651;DHT22;2338;49.602;8.722;2023-08-12T16:15:06;23.80;99.90
4651;DHT22;2338;49.602;8.722;2023-08-12T16:17:51;23.80;99.90
4651;DHT22;2338;49.602;8.722;2023-08-12T16:20:36;23.80;99.90
4651;DHT22;2338;49.602;8.722;2023-08-12T16:23:23;23.80;99.90
4651;DHT22;2338;49.602;8.722;2023-08-12T16:26:09;23.80;99.90
4651;DHT22;2338;49.602;8.722;2023-08-12T16:28:54;23.70;99.90
4651;DHT22;2338;49.602;8.722;2023-08-12T16:31:40;23.70;99.90
4651;DHT22;2338;49.602;8.722;2023-08-12T16:34:25;23.70;99.90
4651;DHT22;2338;49.602;8.722;2023-08-12T16:37:11;23.70;99.90
4651;DHT22;2338;49.602;8.722;2023-08-12T16:39:58;23.70;99.90
4651;DHT22;2338;49.602;8.722;2023-08-12T16:42:44;23.80;99.90
4651;DHT22;2338;49.602;8.722;2023-08-12T16:45:29;23.90;99.90
4651;DHT22;2338;49.602;8.722;2023-08-12T16:48:15;24.00;99.90
4651;DHT22;2338;49.602;8.722;2023-08-12T16:51:00;24.10;99.90
4651;DHT22;2338;49.602;8.722;2023-08-12T16:53:46;24.30;99.90
4651;DHT22;2338;49.602;8.722;2023-08-12T16:56:33;24.40;99.90
4651;DHT22;2338;49.602;8.722;2023-08-12T16:59:18;24.20;99.90
4651;DHT22;2338;49.602;8.722;2023-08-12T17:02:04;24.10;99.90
4651;DHT22;2338;49.602;8.722;2023-08-12T17:04:49;24.10;99.90
4651;DHT22;2338;49.602;8.722;2023-08-12T17:07:35;24.00;99.90
4651;DHT22;2338;49.602;8.722;2023-08-12T17:10:21;23.90;99.90
4651;DHT22;2338;49.602;8.722;2023-08-12T17:13:07;23.90;99.90
4651;DHT22;2338;49.602;8.722;2023-08-12T17:15:53;23.80;99.90
4651;DHT22;2338;49.602;8.722;2023-08-12T17:18:39;23.80;99.90
4651;DHT22;2338;49.602;8.722;2023-08-12T17:21:24;23.70;99.90
4651;DHT22;2338;49.602;8.722;2023-08-12T17:24:10;23.70;99.90
4651;DHT22;2338;49.602;8.722;2023-08-12T17:26:55;23.70;99.90
4651;DHT22;2338;49.602;8.722;2023-08-12T17:29:42;23.70;99.90
4651;DHT22;2338;49.602;8.722;2023-08-12T17:32:28;23.70;99.90
4651;DHT22;2338;49.602;8.722;2023-08-12T17:35:13;23.60;99.90
4651;DHT22;2338;49.602;8.722;2023-08-12T17:37:59;23.60;99.90
4651;DHT22;2338;49.602;8.722;2023-08-12T17:40:48;23.50;99.90
4651;DHT22;2338;49.602;8.722;2023-08-12T17:43:33;23.40;99.90
4651;DHT22;2338;49.602;8.722;2023-08-12T17:46:20;23.40;99.90
4651;DHT22;2338;49.602;8.722;2023-08-12T17:49:07;23.30;99.90
4651;DHT22;2338;49.602;8.722;2023-08-12T17:51:52;23.10;99.90
4651;DHT22;2338;49.602;8.722;2023-08-12T17:54:38;23.10;99.90
4651;DHT22;2338;49.602;8.722;2023-08-12T17:57:23;23.10;99.90
4651;DHT22;2338;49.602;8.722;2023-08-12T18:00:10;23.10;99.90
4651;DHT22;2338;49.602;8.722;2023-08-12T18:02:58;23.00;99.90
4651;DHT22;2338;49.602;8.722;2023-08-12T18:05:44;23.00;99.90